Time;durP1;ratioP1;P1;durP2;ratioP2;P2;SDS_P1;SDS_P2;PMS_P1;PMS_P2;Temp;Humidity;BMP_temperature;BMP_pressure;BME280_temperature;BME280_humidity;BME280_pressure;Samples;Min_cycle;Max_cycle;Signal;HPM_P1;HPM_P2
2023/02/25 00:01:13;;;;;;;2.93;1.20;;;4.20;99.90;;;;;;5034053;28;21957;-68
2023/02/25 00:03:42;;;;;;;1.67;1.30;;;4.20;99.90;;;;;;5029683;28;20468;-67
2023/02/25 00:06:14;;;;;;;1.30;1.20;;;4.10;99.90;;;;;;5023682;28;20624;-67
2023/02/25 00:08:44;;;;;;;1.70;1.00;;;4.20;99.90;;;;;;5026032;28;20501;-67
2023/02/25 00:11:13;;;;;;;2.67;1.10;;;4.10;99.90;;;;;;5027114;28;20497;-66
2023/02/25 00:13:42;;;;;;;1.90;1.17;;;4.20;99.90;;;;;;5028255;28;20493;-67
2023/02/25 00:16:11;;;;;;;3.40;1.07;;;4.20;99.90;;;;;;5017468;28;21260;-67
2023/02/25 00:18:43;;;;;;;2.53;1.13;;;4.10;99.90;;;;;;5025126;28;20469;-67
2023/02/25 00:21:14;;;;;;;1.07;1.00;;;4.10;99.90;;;;;;5019037;28;20589;-67
2023/02/25 00:23:44;;;;;;;1.63;0.90;;;4.10;99.90;;;;;;5027589;28;20531;-67
2023/02/25 00:26:12;;;;;;;1.83;1.10;;;4.20;99.90;;;;;;5030092;28;20498;-67
2023/02/25 00:28:40;;;;;;;3.43;1.20;;;4.20;99.90;;;;;;5023391;28;20568;-67
2023/02/25 00:31:09;;;;;;;1.17;1.00;;;4.20;99.90;;;;;;5019830;28;20500;-67
2023/02/25 00:33:40;;;;;;;1.63;1.07;;;4.20;99.90;;;;;;5018446;28;20469;-67
2023/02/25 00:36:10;;;;;;;1.30;1.20;;;4.20;99.90;;;;;;5016776;28;20496;-67
2023/02/25 00:38:39;;;;;;;1.13;0.93;;;4.20;99.90;;;;;;5022902;28;22304;-67
2023/02/25 00:41:10;;;;;;;3.57;1.00;;;4.20;99.90;;;;;;5023739;28;20496;-67
2023/02/25 00:43:41;;;;;;;1.83;1.10;;;4.20;99.90;;;;;;5015412;28;20474;-67
2023/02/25 00:46:09;;;;;;;1.43;0.97;;;4.30;99.90;;;;;;5033726;28;21380;-67
2023/02/25 00:48:37;;;;;;;1.33;1.20;;;4.30;99.90;;;;;;5024473;28;20484;-67
2023/02/25 00:51:07;;;;;;;2.23;1.13;;;4.30;99.90;;;;;;5029574;28;22905;-67
2023/02/25 00:53:36;;;;;;;1.63;1.40;;;4.30;99.90;;;;;;5036948;28;21275;-67
2023/02/25 00:56:07;;;;;;;1.33;1.23;;;4.30;99.90;;;;;;5035263;28;20485;-69
2023/02/25 00:58:36;;;;;;;1.30;0.90;;;4.30;99.90;;;;;;5044567;28;20465;-66
2023/02/25 01:01:05;;;;;;;1.53;1.00;;;4.30;99.90;;;;;;5057332;28;20600;-69
2023/02/25 01:03:33;;;;;;;3.00;0.90;;;4.30;99.90;;;;;;5051012;28;20467;-68
2023/02/25 01:06:01;;;;;;;1.23;0.80;;;4.30;99.90;;;;;;5048049;28;20542;-67
2023/02/25 01:08:29;;;;;;;1.57;0.90;;;4.30;99.90;;;;;;5031063;28;20504;-67
2023/02/25 01:10:57;;;;;;;1.37;1.20;;;4.40;99.90;;;;;;5026803;28;20490;-66
2023/02/25 01:13:27;;;;;;;2.57;1.13;;;4.30;99.90;;;;;;5026708;28;20472;-67
2023/02/25 01:15:55;;;;;;;1.90;1.17;;;4.30;99.90;;;;;;5028155;28;21776;-67
2023/02/25 01:18:23;;;;;;;1.60;1.40;;;4.30;99.90;;;;;;5022015;28;20906;-67
2023/02/25 01:20:50;;;;;;;0.90;0.90;;;4.30;99.90;;;;;;5028836;28;21080;-68
2023/02/25 01:23:18;;;;;;;1.57;1.00;;;4.20;99.90;;;;;;5025331;28;20508;-67
2023/02/25 01:25:46;;;;;;;0.97;0.93;;;4.20;99.90;;;;;;5022988;28;20473;-67
2023/02/25 01:28:14;;;;;;;2.30;1.13;;;4.20;99.90;;;;;;5025662;28;20466;-67
2023/02/25 01:30:44;;;;;;;0.93;0.90;;;4.20;99.90;;;;;;5030148;28;20501;-67
2023/02/25 01:33:12;;;;;;;1.40;1.20;;;4.20;99.90;;;;;;5035631;28;20842;-67
2023/02/25 01:35:40;;;;;;;1.77;1.10;;;4.30;99.90;;;;;;5030718;28;21051;-67
2023/02/25 01:38:08;;;;;;;1.10;0.93;;;4.20;99.90;;;;;;5026887;28;21693;-67
2023/02/25 01:40:36;;;;;;;1.67;1.00;;;4.20;99.90;;;;;;5021094;28;20489;-67
2023/02/25 01:43:06;;;;;;;1.37;1.03;;;4.20;99.90;;;;;;5043657;28;20501;-67
2023/02/25 01:45:37;;;;;;;1.00;1.00;;;4.20;99.90;;;;;;5028707;28;20478;-67
2023/02/25 01:48:11;;;;;;;1.60;0.80;;;4.20;99.90;;;;;;5022115;28;20481;-68
2023/02/25 01:50:47;;;;;;;1.33;0.83;;;4.20;99.90;;;;;;5025743;28;20572;-67
2023/02/25 01:53:17;;;;;;;5.13;3.03;;;4.20;99.90;;;;;;5020976;28;20483;-68
2023/02/25 01:55:46;;;;;;;1.20;0.90;;;4.20;99.90;;;;;;5022894;28;20466;-67
2023/02/25 01:58:15;;;;;;;1.00;0.90;;;4.20;99.90;;;;;;5026544;28;20478;-67
2023/02/25 02:00:43;;;;;;;1.50;1.40;;;4.20;99.90;;;;;;5021503;28;20485;-67
2023/02/25 02:03:15;;;;;;;1.20;1.20;;;4.20;99.90;;;;;;5017406;28;20494;-67
2023/02/25 02:06:01;;;;;;;1.33;1.07;;;4.20;99.90;;;;;;5023832;28;20496;-68
2023/02/25 02:08:30;;;;;;;1.87;1.00;;;4.20;99.90;;;;;;5022812;28;20493;-67
2023/02/25 02:10:58;;;;;;;1.97;1.20;;;4.20;99.90;;;;;;5024067;28;20493;-67
2023/02/25 02:13:26;;;;;;;1.23;1.13;;;4.10;99.90;;;;;;5028555;28;20496;-68
2023/02/25 02:16:12;;;;;;;1.67;0.80;;;4.10;99.90;;;;;;5022932;28;21790;-68
2023/02/25 02:18:46;;;;;;;0.87;0.87;;;4.10;99.90;;;;;;5027276;28;20638;-68
2023/02/25 02:21:29;;;;;;;0.80;0.80;;;4.10;99.90;;;;;;5018004;28;20497;-68
2023/02/25 02:24:29;;;;;;;1.30;1.20;;;4.10;99.90;;;;;;5026220;28;20477;-68
2023/02/25 02:27:01;;;;;;;1.47;0.93;;;4.10;99.90;;;;;;5022338;28;20493;-68
2023/02/25 02:30:00;;;;;;;1.17;1.03;;;4.10;99.90;;;;;;5024603;28;20497;-68
2023/02/25 02:32:36;;;;;;;1.40;1.30;;;4.10;99.90;;;;;;5027467;28;20520;-68
2023/02/25 02:35:14;;;;;;;1.00;1.00;;;4.10;99.90;;;;;;5023525;28;20579;-67
2023/02/25 02:37:49;;;;;;;1.50;1.23;;;4.10;99.90;;;;;;5028963;28;20490;-67
2023/02/25 02:40:25;;;;;;;3.00;1.30;;;4.20;99.90;;;;;;5024636;28;22359;-68
2023/02/25 02:43:06;;;;;;;1.17;0.90;;;4.10;99.90;;;;;;5020618;28;20489;-67
2023/02/25 02:45:40;;;;;;;0.90;0.90;;;4.10;99.90;;;;;;5028469;28;20480;-67
2023/02/25 02:48:14;;;;;;;2.63;1.23;;;4.10;99.90;;;;;;5020972;28;20987;-67
2023/02/25 02:50:46;;;;;;;2.00;1.10;;;4.10;99.90;;;;;;5023309;28;20494;-67
2023/02/25 02:53:19;;;;;;;1.20;1.10;;;4.10;99.90;;;;;;5026334;28;20468;-67
2023/02/25 02:55:52;;;;;;;1.50;1.40;;;4.10;99.90;;;;;;5027903;28;20556;-67
2023/02/25 02:58:25;;;;;;;1.40;1.30;;;4.00;99.90;;;;;;5019593;28;20470;-67
2023/02/25 03:00:58;;;;;;;1.60;1.50;;;4.00;99.90;;;;;;5026997;28;20566;-67
2023/02/25 03:03:35;;;;;;;2.13;1.70;;;4.00;99.90;;;;;;5020962;28;20550;-67
2023/02/25 03:06:07;;;;;;;2.03;1.80;;;4.00;99.90;;;;;;5025479;28;20525;-67
2023/02/25 03:08:43;;;;;;;1.63;1.30;;;4.00;99.90;;;;;;5019752;28;20485;-67
2023/02/25 03:11:11;;;;;;;2.33;1.20;;;4.00;99.90;;;;;;5019069;28;20489;-67
2023/02/25 03:13:40;;;;;;;1.53;1.13;;;4.00;99.90;;;;;;5027779;28;20471;-67
2023/02/25 03:16:14;;;;;;;1.60;1.17;;;4.00;99.90;;;;;;5012947;28;20501;-67
2023/02/25 03:18:51;;;;;;;2.30;1.57;;;4.00;99.90;;;;;;5024971;28;20481;-67
2023/02/25 03:21:23;;;;;;;1.50;1.20;;;3.90;99.90;;;;;;5024301;28;20489;-67
2023/02/25 03:23:51;;;;;;;1.70;1.40;;;3.90;99.90;;;;;;5026293;28;20489;-66
2023/02/25 03:26:23;;;;;;;1.80;1.30;;;3.80;99.90;;;;;;5029422;28;20500;-67
2023/02/25 03:28:52;;;;;;;1.70;1.17;;;3.80;99.90;;;;;;5011003;28;20492;-67
2023/02/25 03:31:24;;;;;;;1.50;1.20;;;3.80;99.90;;;;;;5028936;28;20751;-66
2023/02/25 03:33:57;;;;;;;1.47;1.20;;;3.80;99.90;;;;;;5026557;28;20462;-67
2023/02/25 03:36:31;;;;;;;1.37;1.27;;;3.80;99.90;;;;;;5026554;28;20489;-67
2023/02/25 03:39:04;;;;;;;2.30;1.20;;;3.70;99.90;;;;;;5024491;28;20485;-66
2023/02/25 03:41:37;;;;;;;2.80;1.20;;;3.70;99.90;;;;;;5022348;28;20473;-66
2023/02/25 03:44:08;;;;;;;1.70;1.40;;;3.70;99.90;;;;;;5024336;28;21256;-67
2023/02/25 03:46:38;;;;;;;1.73;1.27;;;3.60;99.90;;;;;;5015849;28;21386;-66
2023/02/25 03:49:12;;;;;;;2.90;1.23;;;3.60;99.90;;;;;;5032020;28;20473;-67
2023/02/25 03:51:43;;;;;;;2.43;1.40;;;3.50;99.90;;;;;;5026511;28;22482;-67
2023/02/25 03:54:11;;;;;;;3.97;2.43;;;3.50;99.90;;;;;;5020496;28;20534;-67
2023/02/25 03:56:46;;;;;;;1.57;1.47;;;3.50;99.90;;;;;;5029112;28;20481;-67
2023/02/25 03:59:14;;;;;;;1.60;1.50;;;3.50;99.90;;;;;;5024812;28;20472;-67
2023/02/25 04:01:44;;;;;;;2.17;1.30;;;3.50;99.90;;;;;;5041270;28;20476;-67
2023/02/25 04:04:13;;;;;;;2.93;1.40;;;3.50;99.90;;;;;;5060929;28;20489;-67
2023/02/25 04:06:41;;;;;;;2.20;1.60;;;3.50;99.90;;;;;;5048875;28;20901;-67
2023/02/25 04:09:09;;;;;;;2.70;1.37;;;3.50;99.90;;;;;;5027037;28;20478;-67
2023/02/25 04:11:37;;;;;;;2.40;1.40;;;3.40;99.90;;;;;;5032698;28;20477;-67
2023/02/25 04:14:05;;;;;;;1.40;1.30;;;3.30;99.90;;;;;;5027011;28;20465;-69
2023/02/25 04:16:33;;;;;;;1.70;1.30;;;3.30;99.90;;;;;;5035427;28;20481;-68
2023/02/25 04:19:02;;;;;;;2.00;1.23;;;3.30;99.90;;;;;;5033177;28;22108;-67
2023/02/25 04:21:34;;;;;;;2.20;1.47;;;3.30;99.90;;;;;;5031119;28;20550;-67
2023/02/25 04:24:02;;;;;;;1.70;1.20;;;3.40;99.90;;;;;;5050201;28;20580;-67
2023/02/25 04:26:30;;;;;;;1.37;1.20;;;3.30;99.90;;;;;;5027869;28;21039;-68
2023/02/25 04:28:58;;;;;;;5.03;1.00;;;3.30;99.90;;;;;;5028024;28;20480;-66
2023/02/25 04:31:26;;;;;;;2.07;1.50;;;3.20;99.90;;;;;;5021643;28;20513;-67
2023/02/25 04:33:56;;;;;;;1.33;1.17;;;3.20;99.90;;;;;;5024580;28;23049;-68
2023/02/25 04:36:26;;;;;;;3.90;1.30;;;3.20;99.90;;;;;;5021987;28;20496;-67
2023/02/25 04:38:56;;;;;;;2.67;1.50;;;3.20;99.90;;;;;;5027168;28;20968;-69
2023/02/25 04:41:28;;;;;;;1.83;1.47;;;3.20;99.90;;;;;;5024761;28;20855;-68
2023/02/25 04:43:55;;;;;;;3.40;1.10;;;3.30;99.90;;;;;;5018426;28;20520;-68
2023/02/25 04:46:23;;;;;;;1.10;1.00;;;3.30;99.90;;;;;;5025432;28;20517;-67
2023/02/25 04:48:52;;;;;;;1.70;1.13;;;3.20;99.90;;;;;;5031073;28;20478;-68
2023/02/25 04:51:20;;;;;;;1.63;1.23;;;3.20;99.90;;;;;;5024478;28;20485;-68
2023/02/25 04:53:49;;;;;;;3.23;1.33;;;3.20;99.90;;;;;;5034684;28;20481;-67
2023/02/25 04:56:18;;;;;;;1.87;1.43;;;3.20;99.90;;;;;;5025995;28;21583;-68
2023/02/25 04:58:46;;;;;;;1.40;1.30;;;3.20;99.90;;;;;;5014106;28;20477;-67
2023/02/25 05:01:14;;;;;;;2.43;1.20;;;3.20;99.90;;;;;;5010582;28;21417;-67
2023/02/25 05:03:43;;;;;;;2.00;1.27;;;3.20;99.90;;;;;;5029163;28;20864;-67
2023/02/25 05:06:11;;;;;;;1.20;1.10;;;3.20;99.90;;;;;;5026689;28;20486;-67
2023/02/25 05:08:39;;;;;;;1.90;1.03;;;3.30;99.90;;;;;;5021669;28;20959;-68
2023/02/25 05:11:07;;;;;;;2.50;2.30;;;3.30;99.90;;;;;;5033784;28;20485;-66
2023/02/25 05:13:37;;;;;;;2.30;1.20;;;3.30;99.90;;;;;;5028278;28;21525;-67
2023/02/25 05:16:07;;;;;;;1.40;1.30;;;3.30;99.90;;;;;;5014334;28;20513;-67
2023/02/25 05:18:37;;;;;;;1.20;1.00;;;3.30;99.90;;;;;;5024733;28;20891;-67
2023/02/25 05:21:08;;;;;;;2.50;1.30;;;3.20;99.90;;;;;;5024469;28;20504;-67
2023/02/25 05:23:36;;;;;;;1.10;1.03;;;3.30;99.90;;;;;;5019834;28;20489;-67
2023/02/25 05:26:04;;;;;;;1.13;1.03;;;3.30;99.90;;;;;;5024111;28;21281;-67
2023/02/25 05:28:33;;;;;;;1.93;1.27;;;3.30;99.90;;;;;;5020116;28;20473;-67
2023/02/25 05:31:04;;;;;;;1.87;0.90;;;3.20;99.90;;;;;;5024586;28;20498;-67
2023/02/25 05:33:32;;;;;;;1.80;0.97;;;3.30;99.90;;;;;;5031170;28;20470;-67
2023/02/25 05:36:00;;;;;;;1.37;1.00;;;3.20;99.90;;;;;;5023009;28;21249;-67
2023/02/25 05:38:28;;;;;;;1.20;1.07;;;3.30;99.90;;;;;;5020357;28;20484;-67
2023/02/25 05:40:59;;;;;;;2.37;1.30;;;3.30;99.90;;;;;;5021936;28;20883;-67
2023/02/25 05:43:27;;;;;;;1.73;1.07;;;3.30;99.90;;;;;;5024446;28;20767;-67
2023/02/25 05:45:55;;;;;;;2.40;1.43;;;3.30;99.90;;;;;;5011384;28;20489;-68
2023/02/25 05:48:24;;;;;;;1.13;1.03;;;3.20;99.90;;;;;;5036491;28;20973;-67
2023/02/25 05:51:00;;;;;;;1.27;1.10;;;3.20;99.90;;;;;;5028752;28;20493;-67
2023/02/25 05:53:28;;;;;;;1.07;1.07;;;3.20;99.90;;;;;;5022651;28;20934;-68
2023/02/25 05:55:56;;;;;;;0.90;0.90;;;3.20;99.90;;;;;;5027815;28;20494;-67
2023/02/25 05:58:24;;;;;;;1.03;0.77;;;3.20;99.90;;;;;;5024046;28;21843;-68
2023/02/25 06:00:52;;;;;;;1.63;1.33;;;3.20;99.90;;;;;;5016982;28;20482;-67
2023/02/25 06:03:20;;;;;;;1.00;0.90;;;3.20;99.90;;;;;;5021319;28;20517;-67
2023/02/25 06:05:51;;;;;;;1.23;0.90;;;3.20;99.90;;;;;;5008206;28;20476;-67
2023/02/25 06:08:20;;;;;;;3.17;1.30;;;3.30;99.90;;;;;;5020521;28;20492;-68
2023/02/25 06:10:47;;;;;;;1.60;1.00;;;3.20;99.90;;;;;;5021308;28;20978;-67
2023/02/25 06:13:15;;;;;;;1.27;1.17;;;3.20;99.90;;;;;;5028186;28;20484;-67
2023/02/25 06:15:43;;;;;;;3.70;1.10;;;3.20;99.90;;;;;;5022494;28;20976;-67
2023/02/25 06:18:11;;;;;;;1.00;0.90;;;3.30;99.90;;;;;;5043369;28;20469;-67
2023/02/25 06:20:39;;;;;;;2.30;1.50;;;3.20;99.90;;;;;;5015480;28;20610;-67
2023/02/25 06:23:08;;;;;;;1.10;1.00;;;3.30;99.90;;;;;;5013193;28;21090;-68
2023/02/25 06:25:36;;;;;;;2.03;0.90;;;3.30;99.90;;;;;;5036439;28;22081;-67
2023/02/25 06:28:04;;;;;;;1.00;0.90;;;3.30;99.90;;;;;;5025855;28;20499;-68
2023/02/25 06:30:32;;;;;;;1.20;1.10;;;3.30;99.90;;;;;;5023761;28;20493;-67
2023/02/25 06:33:00;;;;;;;3.60;1.27;;;3.30;99.90;;;;;;5020981;28;20580;-68
2023/02/25 06:35:29;;;;;;;1.00;0.90;;;3.30;99.90;;;;;;5028537;28;20842;-66
2023/02/25 06:37:59;;;;;;;2.07;1.07;;;3.30;99.90;;;;;;5047256;28;20546;-67
2023/02/25 06:40:28;;;;;;;1.07;0.90;;;3.30;99.90;;;;;;5039635;28;20528;-69
2023/02/25 06:42:56;;;;;;;1.30;1.07;;;3.30;99.90;;;;;;5030794;28;20469;-70
2023/02/25 06:45:24;;;;;;;0.90;0.90;;;3.20;99.90;;;;;;5043748;28;21187;-70
2023/02/25 06:47:52;;;;;;;1.80;0.90;;;3.20;99.90;;;;;;5041678;28;20493;-69
2023/02/25 06:50:20;;;;;;;1.47;1.00;;;3.20;99.90;;;;;;5041091;28;21168;-69
2023/02/25 06:52:48;;;;;;;1.97;1.73;;;3.20;99.90;;;;;;5036431;28;20484;-69
2023/02/25 06:55:16;;;;;;;2.80;1.30;;;3.20;99.90;;;;;;5029527;28;20482;-70
2023/02/25 06:57:45;;;;;;;1.40;1.17;;;3.20;99.90;;;;;;5008245;28;20481;-71
2023/02/25 07:00:14;;;;;;;0.90;0.90;;;3.20;99.90;;;;;;5011723;28;20575;-68
2023/02/25 07:02:42;;;;;;;2.10;1.30;;;3.20;99.90;;;;;;5023241;28;20477;-68
2023/02/25 07:05:10;;;;;;;1.30;1.20;;;3.20;99.90;;;;;;5035787;28;20497;-69
2023/02/25 07:07:38;;;;;;;1.30;1.20;;;3.20;99.90;;;;;;5021831;28;20486;-71
2023/02/25 07:10:07;;;;;;;2.50;2.30;;;3.10;99.90;;;;;;5015065;28;20497;-71
2023/02/25 07:12:35;;;;;;;1.67;1.57;;;3.10;99.90;;;;;;5038421;28;20976;-69
2023/02/25 07:15:05;;;;;;;1.50;1.30;;;3.10;99.90;;;;;;5030038;28;20971;-71
2023/02/25 07:17:33;;;;;;;1.67;1.10;;;3.10;99.90;;;;;;5022813;28;20487;-69
2023/02/25 07:20:01;;;;;;;1.30;1.20;;;3.00;99.90;;;;;;5022144;28;20500;-69
2023/02/25 07:22:29;;;;;;;2.70;1.20;;;3.00;99.90;;;;;;5014186;28;21002;-69
2023/02/25 07:24:57;;;;;;;1.43;1.10;;;3.00;99.90;;;;;;5004858;28;22298;-69
2023/02/25 07:27:26;;;;;;;0.93;0.93;;;2.90;99.90;;;;;;5019315;28;20481;-68
2023/02/25 07:29:54;;;;;;;2.97;1.60;;;3.00;99.90;;;;;;5021618;28;20497;-69
2023/02/25 07:32:25;;;;;;;2.07;1.20;;;3.00;99.90;;;;;;5043488;28;20481;-69
2023/02/25 07:34:53;;;;;;;2.93;1.30;;;3.00;99.90;;;;;;5004365;28;20821;-70
2023/02/25 07:37:21;;;;;;;1.27;1.00;;;3.00;99.90;;;;;;5018591;28;20486;-70
2023/02/25 07:39:49;;;;;;;7.00;1.43;;;3.10;99.90;;;;;;5014351;28;20497;-69
2023/02/25 07:42:17;;;;;;;2.60;1.30;;;3.10;99.90;;;;;;5026471;28;20478;-69
2023/02/25 07:44:45;;;;;;;1.20;1.10;;;3.10;99.90;;;;;;5022123;28;20493;-71
2023/02/25 07:47:13;;;;;;;2.00;0.73;;;3.10;99.90;;;;;;5016504;28;20486;-70
2023/02/25 07:49:42;;;;;;;1.93;0.90;;;3.10;99.90;;;;;;5019407;28;20624;-70
2023/02/25 07:52:10;;;;;;;4.50;1.10;;;3.20;99.90;;;;;;5046293;28;20471;-69
2023/02/25 07:54:38;;;;;;;1.97;1.00;;;3.20;99.90;;;;;;5046406;28;20465;-69
2023/02/25 07:57:06;;;;;;;1.80;1.10;;;3.20;99.90;;;;;;5052030;28;20493;-69
2023/02/25 07:59:34;;;;;;;1.53;0.90;;;3.20;99.90;;;;;;5051472;28;20497;-69
2023/02/25 08:02:04;;;;;;;3.53;1.13;;;3.30;99.90;;;;;;5045836;28;22112;-70
2023/02/25 08:04:32;;;;;;;1.17;0.73;;;3.30;99.90;;;;;;5030316;28;20856;-71
2023/02/25 08:07:01;;;;;;;2.87;1.07;;;3.40;99.90;;;;;;5032434;28;20494;-70
2023/02/25 08:09:29;;;;;;;1.77;1.00;;;3.30;99.90;;;;;;5055159;28;20497;-69
2023/02/25 08:11:57;;;;;;;1.50;0.87;;;3.30;99.90;;;;;;5034038;28;20473;-68
2023/02/25 08:14:25;;;;;;;0.80;0.80;;;3.40;99.90;;;;;;5026793;28;20474;-69
2023/02/25 08:16:56;;;;;;;2.50;1.13;;;3.30;99.90;;;;;;5023666;28;20496;-69
2023/02/25 08:19:24;;;;;;;1.87;1.00;;;3.30;99.90;;;;;;5014827;28;20559;-69
2023/02/25 08:21:53;;;;;;;1.57;0.90;;;3.30;99.90;;;;;;5024971;28;20473;-69
2023/02/25 08:24:23;;;;;;;0.93;0.83;;;3.40;99.90;;;;;;5025043;28;20479;-69
2023/02/25 08:26:51;;;;;;;4.20;0.90;;;3.30;99.90;;;;;;5029521;28;20496;-69
2023/02/25 08:29:19;;;;;;;2.63;1.10;;;3.30;99.90;;;;;;5043192;28;20477;-69
2023/02/25 08:31:47;;;;;;;1.37;1.10;;;3.30;99.90;;;;;;5039152;28;20485;-71
2023/02/25 08:34:15;;;;;;;3.37;1.13;;;3.20;99.90;;;;;;5026567;28;20479;-71
2023/02/25 08:36:44;;;;;;;3.43;1.70;;;3.20;99.90;;;;;;5024326;28;20477;-70
2023/02/25 08:39:12;;;;;;;1.33;1.00;;;3.20;99.90;;;;;;5034228;28;21707;-70
2023/02/25 08:41:41;;;;;;;1.63;1.50;;;3.20;99.90;;;;;;5041446;28;20789;-70
2023/02/25 08:44:09;;;;;;;2.03;1.23;;;3.20;99.90;;;;;;5019428;28;20473;-68
2023/02/25 08:46:39;;;;;;;1.60;1.20;;;3.10;99.90;;;;;;5027848;28;20506;-69
2023/02/25 08:49:07;;;;;;;2.17;1.10;;;3.10;99.90;;;;;;5019167;28;21528;-69
2023/02/25 08:51:35;;;;;;;1.30;1.00;;;3.20;99.90;;;;;;5022538;28;20643;-68
2023/02/25 08:54:05;;;;;;;1.43;1.27;;;3.20;99.90;;;;;;5033043;28;20470;-70
2023/02/25 08:56:34;;;;;;;3.40;1.27;;;3.10;99.90;;;;;;5046561;28;20506;-70
2023/02/25 08:59:05;;;;;;;1.30;1.20;;;3.20;99.90;;;;;;5027844;28;20478;-70
2023/02/25 09:01:43;;;;;;;3.13;1.30;;;3.20;99.90;;;;;;5014367;28;20493;-71
2023/02/25 09:04:12;;;;;;;1.23;0.80;;;3.20;99.90;;;;;;5016523;28;20497;-71
2023/02/25 09:06:40;;;;;;;1.47;1.10;;;3.30;99.90;;;;;;5017240;28;20492;-70
2023/02/25 09:09:08;;;;;;;1.67;1.20;;;3.30;99.90;;;;;;4991669;28;21130;-71
2023/02/25 09:11:36;;;;;;;1.23;0.90;;;3.30;99.90;;;;;;5020655;28;20497;-69
2023/02/25 09:14:05;;;;;;;2.53;1.53;;;3.30;99.90;;;;;;5011714;28;20486;-70
2023/02/25 09:16:34;;;;;;;2.20;1.20;;;3.50;99.90;;;;;;5030470;28;20489;-69
2023/02/25 09:19:02;;;;;;;2.40;1.10;;;3.60;99.90;;;;;;5018334;28;21462;-69
2023/02/25 09:21:30;;;;;;;5.10;1.20;;;3.80;99.90;;;;;;5014630;28;20981;-70
2023/02/25 09:23:58;;;;;;;1.33;0.90;;;3.80;99.90;;;;;;5005542;28;21599;-70
2023/02/25 09:26:26;;;;;;;3.50;1.10;;;3.80;99.90;;;;;;5016498;28;20935;-71
2023/02/25 09:28:54;;;;;;;0.80;0.80;;;3.70;99.90;;;;;;5011577;28;20723;-68
2023/02/25 09:31:24;;;;;;;2.50;1.10;;;3.60;99.90;;;;;;5012074;28;20505;-72
2023/02/25 09:33:52;;;;;;;3.53;1.13;;;3.60;99.90;;;;;;5023451;28;20484;-70
2023/02/25 09:36:21;;;;;;;2.30;0.97;;;3.60;99.90;;;;;;5006218;28;20489;-69
2023/02/25 09:38:50;;;;;;;3.60;1.53;;;3.60;99.90;;;;;;5012633;28;21047;-70
2023/02/25 09:41:30;;;;;;;2.10;0.67;;;3.70;99.90;;;;;;5004654;28;20524;-71
2023/02/25 09:44:05;;;;;;;1.20;1.10;;;3.70;99.90;;;;;;5032789;28;20462;-69
2023/02/25 09:46:40;;;;;;;3.73;1.97;;;3.70;99.90;;;;;;5013175;28;20493;-70
2023/02/25 09:49:12;;;;;;;1.17;0.97;;;3.70;99.90;;;;;;5019807;28;20477;-69
2023/02/25 09:51:46;;;;;;;2.43;1.00;;;3.70;99.90;;;;;;5015960;28;20972;-71
2023/02/25 09:54:20;;;;;;;2.80;1.13;;;3.70;99.90;;;;;;5018731;28;21024;-70
2023/02/25 09:56:49;;;;;;;1.10;1.03;;;3.60;99.90;;;;;;5017145;28;20489;-69
2023/02/25 09:59:20;;;;;;;1.33;1.00;;;3.70;99.90;;;;;;5024490;28;20485;-71
2023/02/25 10:01:55;;;;;;;4.03;1.00;;;3.70;99.90;;;;;;5025885;28;20465;-71
2023/02/25 10:04:30;;;;;;;3.27;1.10;;;3.80;99.90;;;;;;5025104;28;21090;-69
2023/02/25 10:07:07;;;;;;;1.83;1.00;;;3.90;99.90;;;;;;5025629;28;20500;-72
2023/02/25 10:09:44;;;;;;;2.80;1.57;;;4.00;99.90;;;;;;5017939;28;20497;-70
2023/02/25 10:12:25;;;;;;;2.67;1.10;;;4.10;99.90;;;;;;5028482;28;20480;-70
2023/02/25 10:15:15;;;;;;;2.87;0.87;;;4.20;99.90;;;;;;5023223;28;20864;-70
2023/02/25 10:18:01;;;;;;;0.77;0.70;;;4.20;99.90;;;;;;5029628;28;20490;-71
2023/02/25 10:20:47;;;;;;;2.83;1.03;;;4.10;99.90;;;;;;5023140;28;20493;-72
2023/02/25 10:23:27;;;;;;;3.23;1.10;;;4.00;99.90;;;;;;5027938;28;20473;-68
2023/02/25 10:26:00;;;;;;;1.73;0.80;;;3.90;99.90;;;;;;4997609;28;20497;-71
2023/02/25 10:28:31;;;;;;;5.57;1.50;;;3.80;99.90;;;;;;5014908;28;20474;-70
2023/02/25 10:31:03;;;;;;;2.03;1.10;;;3.80;99.90;;;;;;5016452;28;20811;-69
2023/02/25 10:33:35;;;;;;;0.77;0.77;;;3.70;99.90;;;;;;5012853;28;20497;-70
2023/02/25 10:36:09;;;;;;;2.60;1.40;;;3.60;99.90;;;;;;5019874;28;20853;-70
2023/02/25 10:38:41;;;;;;;1.47;0.87;;;3.60;99.90;;;;;;5025986;28;20706;-69
2023/02/25 10:41:09;;;;;;;3.30;1.23;;;3.60;99.90;;;;;;5015993;28;20529;-70
2023/02/25 10:43:38;;;;;;;2.60;1.10;;;3.60;99.90;;;;;;5021815;28;20470;-70
2023/02/25 10:46:12;;;;;;;3.00;1.10;;;3.70;99.90;;;;;;5010958;28;21167;-70
2023/02/25 10:48:47;;;;;;;3.80;1.00;;;3.70;99.90;;;;;;5010839;28;20500;-70
2023/02/25 10:51:16;;;;;;;2.97;1.00;;;3.80;99.90;;;;;;5019161;28;20879;-70
2023/02/25 10:54:03;;;;;;;1.10;0.80;;;3.70;99.90;;;;;;5016227;28;20925;-70
2023/02/25 10:56:38;;;;;;;1.80;1.27;;;3.70;99.90;;;;;;5007909;28;20488;-69
2023/02/25 10:59:21;;;;;;;2.23;0.90;;;3.70;99.90;;;;;;5039615;28;21686;-70
2023/02/25 11:01:49;;;;;;;3.73;1.20;;;3.80;99.90;;;;;;5015127;28;20972;-69
2023/02/25 11:04:23;;;;;;;1.50;0.80;;;3.90;99.90;;;;;;5021982;28;20485;-71
2023/02/25 11:06:51;;;;;;;2.97;1.20;;;4.00;99.90;;;;;;5021846;28;20494;-69
2023/02/25 11:09:36;;;;;;;1.77;1.20;;;4.00;99.90;;;;;;5017277;28;20485;-69
2023/02/25 11:12:18;;;;;;;3.13;1.10;;;4.10;99.90;;;;;;5043677;28;20473;-70
2023/02/25 11:14:46;;;;;;;4.70;0.90;;;4.20;99.90;;;;;;5015060;28;20570;-69
2023/02/25 11:17:19;;;;;;;3.90;0.90;;;4.30;99.90;;;;;;5005282;28;22065;-70
2023/02/25 11:19:55;;;;;;;1.60;0.90;;;4.50;99.90;;;;;;5004898;28;20854;-70
2023/02/25 11:22:31;;;;;;;1.53;0.83;;;4.60;99.90;;;;;;5015493;28;20469;-70
2023/02/25 11:25:01;;;;;;;2.23;1.00;;;4.80;99.90;;;;;;5006057;28;20972;-70
2023/02/25 11:27:34;;;;;;;2.30;1.20;;;4.90;99.90;;;;;;5008816;28;20531;-70
2023/02/25 11:30:15;;;;;;;2.03;1.00;;;5.00;99.90;;;;;;5027015;28;20560;-71
2023/02/25 11:32:44;;;;;;;1.13;0.80;;;4.90;99.90;;;;;;5004236;28;20477;-70
2023/02/25 11:35:20;;;;;;;2.00;1.00;;;4.80;99.90;;;;;;5008360;28;20511;-71
2023/02/25 11:37:48;;;;;;;1.10;1.00;;;4.70;99.90;;;;;;5014357;28;20485;-72
2023/02/25 11:40:25;;;;;;;2.47;0.93;;;4.70;99.90;;;;;;5014592;28;20516;-69
2023/02/25 11:43:15;;;;;;;2.57;0.90;;;4.80;99.90;;;;;;5036236;28;20469;-69
2023/02/25 11:45:54;;;;;;;3.23;0.90;;;5.00;99.90;;;;;;5040108;28;20473;-70
2023/02/25 11:48:25;;;;;;;1.10;1.00;;;5.20;99.90;;;;;;5010649;28;21171;-69
2023/02/25 11:51:05;;;;;;;1.10;0.90;;;5.30;99.90;;;;;;5031898;28;20494;-71
2023/02/25 11:53:51;;;;;;;2.10;1.03;;;5.40;99.90;;;;;;5034854;28;20465;-69
2023/02/25 11:56:26;;;;;;;1.70;1.00;;;5.40;99.90;;;;;;5025631;28;20486;-69
2023/02/25 11:59:12;;;;;;;2.40;1.03;;;5.40;99.90;;;;;;5016781;28;21163;-69
2023/02/25 12:02:00;;;;;;;2.03;1.23;;;5.50;99.90;;;;;;5014860;28;20499;-69
2023/02/25 12:04:54;;;;;;;1.30;0.97;;;5.70;99.90;;;;;;5019799;28;20484;-70
2023/02/25 12:07:49;;;;;;;2.20;1.20;;;5.70;99.90;;;;;;5013766;28;20494;-70
2023/02/25 12:11:15;;;;;;;3.53;1.10;;;5.50;99.90;;;;;;5028722;28;22070;-69
2023/02/25 12:14:14;;;;;;;2.20;1.27;;;5.60;99.90;;;;;;5020698;28;20474;-71
2023/02/25 12:17:20;;;;;;;2.07;0.90;;;6.40;99.90;;;;;;5018501;28;20492;-70
2023/02/25 12:20:28;;;;;;;2.20;1.10;;;7.50;99.90;;;;;;5035906;28;20496;-70
2023/02/25 12:23:32;;;;;;;2.20;1.10;;;9.20;99.90;;;;;;5035155;28;20480;-68
2023/02/25 12:26:07;;;;;;;3.20;1.20;;;9.90;92.20;;;;;;5027921;28;20965;-68
2023/02/25 12:29:02;;;;;;;2.07;1.60;;;9.80;96.50;;;;;;5016383;28;20492;-68
2023/02/25 12:31:57;;;;;;;2.40;1.17;;;9.70;96.40;;;;;;5011098;28;20489;-69
2023/02/25 12:34:49;;;;;;;1.90;1.10;;;9.20;96.20;;;;;;5017797;28;20472;-69
2023/02/25 12:37:41;;;;;;;1.60;1.20;;;8.50;99.90;;;;;;5018789;28;20481;-69
2023/02/25 12:40:29;;;;;;;5.80;1.30;;;8.30;99.90;;;;;;5020692;28;20497;-69
2023/02/25 12:43:12;;;;;;;2.30;1.20;;;9.50;95.10;;;;;;5002794;28;20481;-69
2023/02/25 12:45:57;;;;;;;2.10;1.17;;;11.30;82.80;;;;;;5023032;28;20477;-69
2023/02/25 12:48:57;;;;;;;3.50;1.10;;;11.40;64.60;;;;;;5028329;28;20496;-68
2023/02/25 12:51:40;;;;;;;4.50;1.30;;;12.60;57.20;;;;;;5007503;28;21265;-68
2023/02/25 12:54:25;;;;;;;2.40;1.10;;;15.40;46.80;;;;;;5028719;28;20488;-69
2023/02/25 12:57:13;;;;;;;2.80;1.47;;;15.80;42.30;;;;;;5015238;28;21180;-69
2023/02/25 12:59:58;;;;;;;2.03;1.10;;;17.20;40.90;;;;;;5027262;28;20952;-70
2023/02/25 13:02:43;;;;;;;1.40;1.03;;;18.30;37.60;;;;;;5044904;28;20477;-68
2023/02/25 13:05:42;;;;;;;1.70;1.10;;;20.40;34.80;;;;;;5043265;28;21533;-69
2023/02/25 13:08:33;;;;;;;1.63;1.00;;;20.60;32.00;;;;;;5029154;28;21532;-69
2023/02/25 13:11:12;;;;;;;3.73;1.60;;;21.30;31.30;;;;;;5021584;28;21041;-69
2023/02/25 13:14:12;;;;;;;1.80;1.30;;;22.80;29.80;;;;;;5031860;28;20461;-69
2023/02/25 13:17:02;;;;;;;1.63;1.20;;;22.70;28.40;;;;;;5025551;28;20490;-69
2023/02/25 13:19:53;;;;;;;1.43;1.20;;;22.90;28.50;;;;;;5029867;28;20481;-69
2023/02/25 13:22:36;;;;;;;3.00;1.47;;;23.90;28.20;;;;;;5058439;28;20470;-69
2023/02/25 13:25:14;;;;;;;2.87;1.30;;;23.40;26.50;;;;;;5055043;28;20477;-70